Nearby METAR Reports

 

YSCB - Canberra (civ/Mi, Australia
Distance from station: NNE 21km
Updated: 18/01/2021 09:30
Clear
Clear
 Wind from NW
Wind: NW 7 km/h
Clouds: Clear
Visibility: 10 km
2021/01/17 22:30 YSCB 172230Z AUTO 31004KT 250V350 9999 // NCD 18/1
YCOM - Cooma Snowy Mtns, Australia
Distance from station: S 94km
Updated: 18/01/2021 09:00
Clear
Clear
 Wind from NE
Wind: NE 9 km/h
Temperature: 16°C
Dew Point: 8°C
Humidity: 59%
Barometer: 1016 hPa
Clouds: Clear
Visibility: 10 km
2021/01/17 22:00 YCOM 172200Z AUTO 04005KT 9999 // NCD 16/08 Q1016
 
YSNW - Nowra (aus-Navy), Australia
Distance from station: ENE 140km
Updated: 18/01/2021 09:00
Clear
Clear
 Wind from W
Wind: W 13 km/h
Temperature: 22°C
Dew Point: 14°C
Humidity: 61%
Barometer: 1014 hPa
Summary: Clear
Visibility: greater than 10 km
2021/01/17 22:00 YSNW 172200Z 27007KT CAVOK 22/14 Q1014
YSWG - Wagga Wagga(Cv/M, Australia
Distance from station: WNW 153km
Updated: 18/01/2021 09:00
Clear
Clear
 Wind from N
Wind: N 7 km/h
Temperature: 19°C
Dew Point: 7°C
Humidity: 46%
Barometer: 1015 hPa
Summary: Clear
Visibility: greater than 10 km
2021/01/17 22:00 YSWG 172200Z 35004KT 310V020 CAVOK 19/07 Q1015
 
YMER - Merimbula Arpt, Australia
Distance from station: SSE 177km
Updated: 18/01/2021 09:00
Clear
Clear
 Wind from calm
Wind: Calm
Temperature: 18°C
Dew Point: 11°C
Humidity: 64%
Barometer: 1014 hPa
Clouds: Clear
Visibility: 10 km
2021/01/17 22:00 YMER 172200Z AUTO 00000KT 9999 // NCD 18/11 Q1014
YMAY - Albury Airport, Australia
Distance from station: WSW 207km
Updated: 18/01/2021 09:00
Clear
Clear
 Wind from SE
Wind: SE 6 km/h
Temperature: 19°C
Dew Point: 9°C
Humidity: 52%
Barometer: 1015 hPa
Clouds: Clear
Visibility: 10 km
2021/01/17 22:00 YMAY 172200Z AUTO 13003KT 9999 // NCD 19/09 Q1015
 
YNAR - Narrandera, Australia
Distance from station: WNW 250km
Updated: 18/01/2021 09:00
Clear
Clear
 Wind from SW
Wind: SW 13 km/h
Temperature: 20°C
Dew Point: 7°C
Humidity: 43%
Barometer: 1016 hPa
Clouds: Clear
Visibility: 10 km
2021/01/17 22:00 YNAR 172200Z AUTO 23007KT 9999 // NCD 20/07 Q1016
YSSY - Sydney Intl Airp, Australia
Distance from station: NE 253km
Updated: 18/01/2021 09:30
Few Clouds
Few Clouds
 Wind from NNW
Wind: NNW 20 km/h
Temperature: 26°C
Dew Point: 17°C
Humidity: 58%
Barometer: 1014 hPa
Clouds: Few Clouds
Visibility: 10 km
Cloud details: Few Clouds 1067 m
2021/01/17 22:30 YSSY 172230Z 33011KT 9999 FEW035 26/17 Q1014
 
YSRI - Richmond (aus-Af, Australia
Distance from station: NE 257km
Updated: 18/01/2021 09:30
Clear
Clear
 Wind from N
Wind: N 11 km/h
Temperature: 24°C
Dew Point: 17°C
Humidity: 65%
Barometer: 1014 hPa
Clouds: Clear
Visibility: 10 km
2021/01/17 22:30 YSRI 172230Z AUTO 01006KT 9999 // NCD 24/17 Q1014 RF00.0/000.0
YWGT - Wangaratta Arp, Australia
Distance from station: WSW 274km
Updated: 18/01/2021 09:00
Clear
Clear
 Wind from WSW
Wind: WSW 13 km/h
Temperature: 19°C
Dew Point: 8°C
Humidity: 49%
Barometer: 1016 hPa
Clouds: Clear
Visibility: 10 km
2021/01/17 22:00 YWGT 172200Z AUTO 24007KT 9999 // NCD 19/08 Q1016
 
YGTH - Griffith Arpt, Australia
Distance from station: WNW 308km
Updated: 18/01/2021 09:00
Clear
Clear
 Wind from WSW
Wind: WSW 9 km/h
Temperature: 19°C
Dew Point: 8°C
Humidity: 49%
Barometer: 1017 hPa
Clouds: Clear
Visibility: 10 km
2021/01/17 22:00 YGTH 172200Z AUTO 24005KT 220V290 9999 // NCD 19/08 Q1017